sensor_id;sensor_type;location;lat;lon;timestamp;temperature;humidity
18934;DHT22;9599;53.706;10.384;2023-06-10T00:00:00;14.10;99.90
18934;DHT22;9599;53.706;10.384;2023-06-10T00:02:38;14.10;99.90
18934;DHT22;9599;53.706;10.384;2023-06-10T00:05:08;14.00;99.90
18934;DHT22;9599;53.706;10.384;2023-06-10T00:07:37;14.00;99.90
18934;DHT22;9599;53.706;10.384;2023-06-10T00:10:06;14.10;99.90
18934;DHT22;9599;53.706;10.384;2023-06-10T00:12:34;14.10;99.90
18934;DHT22;9599;53.706;10.384;2023-06-10T00:15:04;14.00;99.90
18934;DHT22;9599;53.706;10.384;2023-06-10T00:17:34;14.10;99.90
18934;DHT22;9599;53.706;10.384;2023-06-10T00:20:09;14.00;99.90
18934;DHT22;9599;53.706;10.384;2023-06-10T00:22:38;13.90;99.90
18934;DHT22;9599;53.706;10.384;2023-06-10T00:25:09;13.90;99.90
18934;DHT22;9599;53.706;10.384;2023-06-10T00:27:37;13.80;99.90
18934;DHT22;9599;53.706;10.384;2023-06-10T00:30:06;13.80;99.90
18934;DHT22;9599;53.706;10.384;2023-06-10T00:32:35;13.80;99.90
18934;DHT22;9599;53.706;10.384;2023-06-10T00:35:04;13.80;99.90
18934;DHT22;9599;53.706;10.384;2023-06-10T00:37:34;13.80;99.90
18934;DHT22;9599;53.706;10.384;2023-06-10T00:40:03;13.80;99.90
18934;DHT22;9599;53.706;10.384;2023-06-10T00:42:31;13.80;99.90
18934;DHT22;9599;53.706;10.384;2023-06-10T00:44:59;13.70;99.90
18934;DHT22;9599;53.706;10.384;2023-06-10T00:47:28;13.70;99.90
18934;DHT22;9599;53.706;10.384;2023-06-10T00:49:57;13.70;99.90
18934;DHT22;9599;53.706;10.384;2023-06-10T00:52:28;13.70;99.90
18934;DHT22;9599;53.706;10.384;2023-06-10T00:54:58;13.70;99.90
18934;DHT22;9599;53.706;10.384;2023-06-10T00:57:27;13.60;99.90
18934;DHT22;9599;53.706;10.384;2023-06-10T00:59:57;13.60;99.90
18934;DHT22;9599;53.706;10.384;2023-06-10T01:02:26;13.60;99.90
18934;DHT22;9599;53.706;10.384;2023-06-10T01:04:58;13.60;99.90
18934;DHT22;9599;53.706;10.384;2023-06-10T01:07:33;13.60;99.90
18934;DHT22;9599;53.706;10.384;2023-06-10T01:10:05;13.60;99.90
18934;DHT22;9599;53.706;10.384;2023-06-10T01:12:41;13.60;99.90
18934;DHT22;9599;53.706;10.384;2023-06-10T01:15:15;13.60;99.90
18934;DHT22;9599;53.706;10.384;2023-06-10T01:17:58;13.60;99.90
18934;DHT22;9599;53.706;10.384;2023-06-10T01:20:30;13.60;99.90
18934;DHT22;9599;53.706;10.384;2023-06-10T01:23:01;13.60;99.90
18934;DHT22;9599;53.706;10.384;2023-06-10T01:25:33;13.60;99.90
18934;DHT22;9599;53.706;10.384;2023-06-10T01:28:07;13.60;99.90
18934;DHT22;9599;53.706;10.384;2023-06-10T01:30:41;13.60;99.90
18934;DHT22;9599;53.706;10.384;2023-06-10T01:33:14;13.60;99.90
18934;DHT22;9599;53.706;10.384;2023-06-10T01:35:46;13.60;99.90
18934;DHT22;9599;53.706;10.384;2023-06-10T01:38:18;13.60;99.90
18934;DHT22;9599;53.706;10.384;2023-06-10T01:40:49;13.50;99.90
18934;DHT22;9599;53.706;10.384;2023-06-10T01:43:19;13.50;99.90
18934;DHT22;9599;53.706;10.384;2023-06-10T01:45:48;13.50;99.90
18934;DHT22;9599;53.706;10.384;2023-06-10T01:48:16;13.50;99.90
18934;DHT22;9599;53.706;10.384;2023-06-10T01:50:43;13.50;99.90
18934;DHT22;9599;53.706;10.384;2023-06-10T01:53:11;13.50;99.90
18934;DHT22;9599;53.706;10.384;2023-06-10T01:55:41;13.50;99.90
18934;DHT22;9599;53.706;10.384;2023-06-10T01:58:08;13.50;99.90
18934;DHT22;9599;53.706;10.384;2023-06-10T02:00:37;13.50;99.90
18934;DHT22;9599;53.706;10.384;2023-06-10T02:03:05;13.40;99.90
18934;DHT22;9599;53.706;10.384;2023-06-10T02:05:33;13.50;99.90
18934;DHT22;9599;53.706;10.384;2023-06-10T02:08:01;13.40;99.90
18934;DHT22;9599;53.706;10.384;2023-06-10T02:10:29;13.40;99.90
18934;DHT22;9599;53.706;10.384;2023-06-10T02:12:58;13.40;99.90
18934;DHT22;9599;53.706;10.384;2023-06-10T02:15:28;13.30;99.90
18934;DHT22;9599;53.706;10.384;2023-06-10T02:17:56;13.30;99.90
18934;DHT22;9599;53.706;10.384;2023-06-10T02:20:24;13.30;99.90
18934;DHT22;9599;53.706;10.384;2023-06-10T02:22:52;13.30;99.90
18934;DHT22;9599;53.706;10.384;2023-06-10T02:25:20;13.40;99.90
18934;DHT22;9599;53.706;10.384;2023-06-10T02:27:49;13.40;99.90
18934;DHT22;9599;53.706;10.384;2023-06-10T02:30:19;13.30;99.90
18934;DHT22;9599;53.706;10.384;2023-06-10T02:32:47;13.30;99.90
18934;DHT22;9599;53.706;10.384;2023-06-10T02:35:17;13.20;99.90
18934;DHT22;9599;53.706;10.384;2023-06-10T02:37:45;13.20;99.90
18934;DHT22;9599;53.706;10.384;2023-06-10T02:40:14;13.20;99.90
18934;DHT22;9599;53.706;10.384;2023-06-10T02:42:42;13.20;99.90
18934;DHT22;9599;53.706;10.384;2023-06-10T02:45:10;13.10;99.90
18934;DHT22;9599;53.706;10.384;2023-06-10T02:47:43;13.20;99.90
18934;DHT22;9599;53.706;10.384;2023-06-10T02:50:12;13.20;99.90
18934;DHT22;9599;53.706;10.384;2023-06-10T02:52:50;13.10;99.90
18934;DHT22;9599;53.706;10.384;2023-06-10T02:55:19;13.20;99.90
18934;DHT22;9599;53.706;10.384;2023-06-10T02:57:53;13.10;99.90
18934;DHT22;9599;53.706;10.384;2023-06-10T03:00:23;13.10;99.90
18934;DHT22;9599;53.706;10.384;2023-06-10T03:02:53;13.10;99.90
18934;DHT22;9599;53.706;10.384;2023-06-10T03:05:31;13.10;99.90
18934;DHT22;9599;53.706;10.384;2023-06-10T03:08:02;13.20;99.90
18934;DHT22;9599;53.706;10.384;2023-06-10T03:10:33;13.10;99.90
18934;DHT22;9599;53.706;10.384;2023-06-10T03:13:02;13.20;99.90
18934;DHT22;9599;53.706;10.384;2023-06-10T03:15:31;13.30;99.90
18934;DHT22;9599;53.706;10.384;2023-06-10T03:18:09;13.20;99.90
18934;DHT22;9599;53.706;10.384;2023-06-10T03:20:38;13.20;99.90
18934;DHT22;9599;53.706;10.384;2023-06-10T03:23:09;13.20;99.90
18934;DHT22;9599;53.706;10.384;2023-06-10T03:25:39;13.20;99.90
18934;DHT22;9599;53.706;10.384;2023-06-10T03:28:10;13.20;99.90
18934;DHT22;9599;53.706;10.384;2023-06-10T03:30:38;13.20;99.90
18934;DHT22;9599;53.706;10.384;2023-06-10T03:33:08;13.20;99.90
18934;DHT22;9599;53.706;10.384;2023-06-10T03:35:37;13.30;99.90
18934;DHT22;9599;53.706;10.384;2023-06-10T03:38:05;13.40;99.90
18934;DHT22;9599;53.706;10.384;2023-06-10T03:40:33;13.40;99.90
18934;DHT22;9599;53.706;10.384;2023-06-10T03:43:01;13.40;99.90
18934;DHT22;9599;53.706;10.384;2023-06-10T03:45:30;13.40;99.90
18934;DHT22;9599;53.706;10.384;2023-06-10T03:47:59;13.40;99.90
18934;DHT22;9599;53.706;10.384;2023-06-10T03:50:37;13.50;99.90
18934;DHT22;9599;53.706;10.384;2023-06-10T03:53:05;13.50;99.90
18934;DHT22;9599;53.706;10.384;2023-06-10T03:55:34;13.50;99.90
18934;DHT22;9599;53.706;10.384;2023-06-10T03:58:04;13.50;99.90
18934;DHT22;9599;53.706;10.384;2023-06-10T04:00:32;13.50;99.90
18934;DHT22;9599;53.706;10.384;2023-06-10T04:03:08;13.60;99.90
18934;DHT22;9599;53.706;10.384;2023-06-10T04:05:46;13.60;99.90
18934;DHT22;9599;53.706;10.384;2023-06-10T04:08:14;13.70;99.90
18934;DHT22;9599;53.706;10.384;2023-06-10T04:10:42;13.70;99.90
18934;DHT22;9599;53.706;10.384;2023-06-10T04:13:10;13.70;99.90
18934;DHT22;9599;53.706;10.384;2023-06-10T04:15:46;13.80;99.90
18934;DHT22;9599;53.706;10.384;2023-06-10T04:18:16;13.90;99.90
18934;DHT22;9599;53.706;10.384;2023-06-10T04:20:48;13.90;99.90
18934;DHT22;9599;53.706;10.384;2023-06-10T04:23:17;13.90;99.90
18934;DHT22;9599;53.706;10.384;2023-06-10T04:25:46;14.00;99.90
18934;DHT22;9599;53.706;10.384;2023-06-10T04:28:14;14.00;99.90
18934;DHT22;9599;53.706;10.384;2023-06-10T04:30:43;14.00;99.90
18934;DHT22;9599;53.706;10.384;2023-06-10T04:33:12;14.10;99.90
18934;DHT22;9599;53.706;10.384;2023-06-10T04:35:40;14.20;99.90
18934;DHT22;9599;53.706;10.384;2023-06-10T04:38:13;14.20;99.90
18934;DHT22;9599;53.706;10.384;2023-06-10T04:40:42;14.20;99.90
18934;DHT22;9599;53.706;10.384;2023-06-10T04:43:12;14.30;99.90
18934;DHT22;9599;53.706;10.384;2023-06-10T04:45:43;14.40;99.90
18934;DHT22;9599;53.706;10.384;2023-06-10T04:48:12;14.60;99.90
18934;DHT22;9599;53.706;10.384;2023-06-10T04:50:41;14.80;99.90
18934;DHT22;9599;53.706;10.384;2023-06-10T04:53:10;14.90;99.90
18934;DHT22;9599;53.706;10.384;2023-06-10T04:55:43;15.00;99.90
18934;DHT22;9599;53.706;10.384;2023-06-10T04:58:11;15.10;99.90
18934;DHT22;9599;53.706;10.384;2023-06-10T05:00:39;15.30;99.90
18934;DHT22;9599;53.706;10.384;2023-06-10T05:03:07;15.40;99.90
18934;DHT22;9599;53.706;10.384;2023-06-10T05:05:35;15.60;99.90
18934;DHT22;9599;53.706;10.384;2023-06-10T05:08:03;15.70;99.90
18934;DHT22;9599;53.706;10.384;2023-06-10T05:10:34;15.90;99.90
18934;DHT22;9599;53.706;10.384;2023-06-10T05:13:03;16.10;99.90
18934;DHT22;9599;53.706;10.384;2023-06-10T05:15:31;16.30;99.90
18934;DHT22;9599;53.706;10.384;2023-06-10T05:17:59;16.40;99.90
18934;DHT22;9599;53.706;10.384;2023-06-10T05:20:29;16.60;99.90
18934;DHT22;9599;53.706;10.384;2023-06-10T05:22:57;16.70;99.90
18934;DHT22;9599;53.706;10.384;2023-06-10T05:25:26;16.70;99.90
18934;DHT22;9599;53.706;10.384;2023-06-10T05:27:54;17.00;99.90
18934;DHT22;9599;53.706;10.384;2023-06-10T05:30:24;17.00;99.90
18934;DHT22;9599;53.706;10.384;2023-06-10T05:32:53;16.90;99.90
18934;DHT22;9599;53.706;10.384;2023-06-10T05:35:22;17.10;99.90
18934;DHT22;9599;53.706;10.384;2023-06-10T05:37:50;17.30;99.90
18934;DHT22;9599;53.706;10.384;2023-06-10T05:40:18;17.50;99.90
18934;DHT22;9599;53.706;10.384;2023-06-10T05:42:46;17.70;99.90
18934;DHT22;9599;53.706;10.384;2023-06-10T05:45:14;17.80;99.90
18934;DHT22;9599;53.706;10.384;2023-06-10T05:47:44;17.80;99.90
18934;DHT22;9599;53.706;10.384;2023-06-10T05:50:12;17.90;99.90
18934;DHT22;9599;53.706;10.384;2023-06-10T05:52:39;18.10;99.90
18934;DHT22;9599;53.706;10.384;2023-06-10T05:55:08;18.30;99.90
18934;DHT22;9599;53.706;10.384;2023-06-10T05:57:37;18.40;99.90
18934;DHT22;9599;53.706;10.384;2023-06-10T06:00:06;18.40;99.90
18934;DHT22;9599;53.706;10.384;2023-06-10T06:02:39;18.30;99.90
18934;DHT22;9599;53.706;10.384;2023-06-10T06:05:08;18.50;99.90
18934;DHT22;9599;53.706;10.384;2023-06-10T06:07:37;18.50;99.90
18934;DHT22;9599;53.706;10.384;2023-06-10T06:10:06;18.50;99.90
18934;DHT22;9599;53.706;10.384;2023-06-10T06:12:34;18.70;99.90
18934;DHT22;9599;53.706;10.384;2023-06-10T06:15:03;18.60;99.90
18934;DHT22;9599;53.706;10.384;2023-06-10T06:17:31;18.70;99.90
18934;DHT22;9599;53.706;10.384;2023-06-10T06:19:59;18.70;99.90
18934;DHT22;9599;53.706;10.384;2023-06-10T06:22:28;18.90;99.90
18934;DHT22;9599;53.706;10.384;2023-06-10T06:24:56;19.00;99.90
18934;DHT22;9599;53.706;10.384;2023-06-10T06:27:25;19.10;99.90
18934;DHT22;9599;53.706;10.384;2023-06-10T06:29:52;19.40;99.90
18934;DHT22;9599;53.706;10.384;2023-06-10T06:32:21;19.30;99.90
18934;DHT22;9599;53.706;10.384;2023-06-10T06:34:49;19.40;99.90
18934;DHT22;9599;53.706;10.384;2023-06-10T06:37:22;19.40;99.90
18934;DHT22;9599;53.706;10.384;2023-06-10T06:39:58;19.50;99.90
18934;DHT22;9599;53.706;10.384;2023-06-10T06:42:30;19.60;99.90
18934;DHT22;9599;53.706;10.384;2023-06-10T06:45:10;19.60;99.90
18934;DHT22;9599;53.706;10.384;2023-06-10T06:47:38;19.80;99.90
18934;DHT22;9599;53.706;10.384;2023-06-10T06:50:07;20.10;99.90
18934;DHT22;9599;53.706;10.384;2023-06-10T06:52:35;20.20;99.90
18934;DHT22;9599;53.706;10.384;2023-06-10T06:55:05;20.40;99.90
18934;DHT22;9599;53.706;10.384;2023-06-10T06:57:34;20.60;99.90
18934;DHT22;9599;53.706;10.384;2023-06-10T07:00:02;20.80;99.90
18934;DHT22;9599;53.706;10.384;2023-06-10T07:02:31;20.80;99.90
18934;DHT22;9599;53.706;10.384;2023-06-10T07:05:00;21.00;99.90
18934;DHT22;9599;53.706;10.384;2023-06-10T07:07:28;21.10;99.90
18934;DHT22;9599;53.706;10.384;2023-06-10T07:09:56;21.20;99.90
18934;DHT22;9599;53.706;10.384;2023-06-10T07:12:26;21.50;99.90
18934;DHT22;9599;53.706;10.384;2023-06-10T07:14:56;21.60;99.90
18934;DHT22;9599;53.706;10.384;2023-06-10T07:17:24;21.60;99.90
18934;DHT22;9599;53.706;10.384;2023-06-10T07:19:53;21.70;99.90
18934;DHT22;9599;53.706;10.384;2023-06-10T07:22:24;21.70;99.90
18934;DHT22;9599;53.706;10.384;2023-06-10T07:24:52;21.60;99.90
18934;DHT22;9599;53.706;10.384;2023-06-10T07:27:21;21.60;99.90
18934;DHT22;9599;53.706;10.384;2023-06-10T07:29:51;21.80;99.90
18934;DHT22;9599;53.706;10.384;2023-06-10T07:32:19;22.10;99.90
18934;DHT22;9599;53.706;10.384;2023-06-10T07:34:49;22.10;99.90
18934;DHT22;9599;53.706;10.384;2023-06-10T07:37:16;22.10;99.90
18934;DHT22;9599;53.706;10.384;2023-06-10T07:39:46;22.20;99.90
18934;DHT22;9599;53.706;10.384;2023-06-10T07:42:14;22.00;99.90
18934;DHT22;9599;53.706;10.384;2023-06-10T07:44:43;22.00;99.90
18934;DHT22;9599;53.706;10.384;2023-06-10T07:47:12;22.00;99.90
18934;DHT22;9599;53.706;10.384;2023-06-10T07:49:40;21.90;99.90
18934;DHT22;9599;53.706;10.384;2023-06-10T07:52:08;22.20;99.90
18934;DHT22;9599;53.706;10.384;2023-06-10T07:54:36;22.30;99.90
18934;DHT22;9599;53.706;10.384;2023-06-10T07:57:04;22.70;99.90
18934;DHT22;9599;53.706;10.384;2023-06-10T07:59:33;22.90;99.90
18934;DHT22;9599;53.706;10.384;2023-06-10T08:02:01;22.70;99.90
18934;DHT22;9599;53.706;10.384;2023-06-10T08:04:31;22.70;99.90
18934;DHT22;9599;53.706;10.384;2023-06-10T08:07:02;22.60;99.90
18934;DHT22;9599;53.706;10.384;2023-06-10T08:09:30;22.50;99.90
18934;DHT22;9599;53.706;10.384;2023-06-10T08:11:58;22.50;99.90
18934;DHT22;9599;53.706;10.384;2023-06-10T08:14:26;22.40;99.90
18934;DHT22;9599;53.706;10.384;2023-06-10T08:16:54;22.60;99.90
18934;DHT22;9599;53.706;10.384;2023-06-10T08:19:22;22.70;99.90
18934;DHT22;9599;53.706;10.384;2023-06-10T08:21:51;22.90;99.90
18934;DHT22;9599;53.706;10.384;2023-06-10T08:24:19;23.10;99.90
18934;DHT22;9599;53.706;10.384;2023-06-10T08:26:47;23.00;99.90
18934;DHT22;9599;53.706;10.384;2023-06-10T08:29:15;23.10;99.90
18934;DHT22;9599;53.706;10.384;2023-06-10T08:31:43;23.20;99.90
18934;DHT22;9599;53.706;10.384;2023-06-10T08:34:11;23.50;99.90
18934;DHT22;9599;53.706;10.384;2023-06-10T08:36:39;23.40;99.90
18934;DHT22;9599;53.706;10.384;2023-06-10T08:39:09;23.10;99.90
18934;DHT22;9599;53.706;10.384;2023-06-10T08:41:41;23.00;99.90
18934;DHT22;9599;53.706;10.384;2023-06-10T08:44:15;23.20;99.90
18934;DHT22;9599;53.706;10.384;2023-06-10T08:46:45;23.20;99.90
18934;DHT22;9599;53.706;10.384;2023-06-10T08:49:18;23.50;99.90
18934;DHT22;9599;53.706;10.384;2023-06-10T08:51:50;23.10;99.90
18934;DHT22;9599;53.706;10.384;2023-06-10T08:54:21;23.50;99.90
18934;DHT22;9599;53.706;10.384;2023-06-10T08:56:50;23.50;99.90
18934;DHT22;9599;53.706;10.384;2023-06-10T08:59:20;23.50;99.90
18934;DHT22;9599;53.706;10.384;2023-06-10T09:01:48;23.50;99.90
18934;DHT22;9599;53.706;10.384;2023-06-10T09:04:18;23.80;99.90
18934;DHT22;9599;53.706;10.384;2023-06-10T09:06:47;24.10;99.90
18934;DHT22;9599;53.706;10.384;2023-06-10T09:09:16;24.20;99.90
18934;DHT22;9599;53.706;10.384;2023-06-10T09:11:47;24.00;99.90
18934;DHT22;9599;53.706;10.384;2023-06-10T09:14:16;23.80;99.90
18934;DHT22;9599;53.706;10.384;2023-06-10T09:16:44;23.70;99.90
18934;DHT22;9599;53.706;10.384;2023-06-10T09:19:14;24.00;99.90
18934;DHT22;9599;53.706;10.384;2023-06-10T09:21:43;24.20;99.90
18934;DHT22;9599;53.706;10.384;2023-06-10T09:24:11;24.20;99.90
18934;DHT22;9599;53.706;10.384;2023-06-10T09:26:39;24.20;99.90
18934;DHT22;9599;53.706;10.384;2023-06-10T09:29:08;24.30;99.90
18934;DHT22;9599;53.706;10.384;2023-06-10T09:31:39;24.20;99.90
18934;DHT22;9599;53.706;10.384;2023-06-10T09:34:08;24.60;99.90
18934;DHT22;9599;53.706;10.384;2023-06-10T09:36:37;24.60;99.90
18934;DHT22;9599;53.706;10.384;2023-06-10T09:39:14;24.30;99.90
18934;DHT22;9599;53.706;10.384;2023-06-10T09:41:43;24.40;99.90
18934;DHT22;9599;53.706;10.384;2023-06-10T09:44:13;24.40;99.90
18934;DHT22;9599;53.706;10.384;2023-06-10T09:46:42;24.70;99.90
18934;DHT22;9599;53.706;10.384;2023-06-10T09:49:12;24.60;99.90
18934;DHT22;9599;53.706;10.384;2023-06-10T09:51:49;24.70;99.90
18934;DHT22;9599;53.706;10.384;2023-06-10T09:54:17;24.50;99.90
18934;DHT22;9599;53.706;10.384;2023-06-10T09:56:47;24.40;99.90
18934;DHT22;9599;53.706;10.384;2023-06-10T09:59:28;24.70;99.90
18934;DHT22;9599;53.706;10.384;2023-06-10T10:01:56;24.70;99.90
18934;DHT22;9599;53.706;10.384;2023-06-10T10:04:24;24.50;99.90
18934;DHT22;9599;53.706;10.384;2023-06-10T10:06:52;24.50;99.90
18934;DHT22;9599;53.706;10.384;2023-06-10T10:09:20;24.60;99.90
18934;DHT22;9599;53.706;10.384;2023-06-10T10:11:48;24.60;99.90
18934;DHT22;9599;53.706;10.384;2023-06-10T10:14:18;24.70;99.90
18934;DHT22;9599;53.706;10.384;2023-06-10T10:16:47;24.80;99.90
18934;DHT22;9599;53.706;10.384;2023-06-10T10:19:23;24.80;99.90
18934;DHT22;9599;53.706;10.384;2023-06-10T10:21:54;24.80;99.90
18934;DHT22;9599;53.706;10.384;2023-06-10T10:24:30;24.70;99.90
18934;DHT22;9599;53.706;10.384;2023-06-10T10:26:59;24.80;99.90
18934;DHT22;9599;53.706;10.384;2023-06-10T10:29:33;24.80;99.90
18934;DHT22;9599;53.706;10.384;2023-06-10T10:32:04;24.90;99.90
18934;DHT22;9599;53.706;10.384;2023-06-10T10:34:37;25.00;99.90
18934;DHT22;9599;53.706;10.384;2023-06-10T10:37:08;25.00;99.90
18934;DHT22;9599;53.706;10.384;2023-06-10T10:39:36;25.40;99.90
18934;DHT22;9599;53.706;10.384;2023-06-10T10:42:05;25.70;99.90
18934;DHT22;9599;53.706;10.384;2023-06-10T10:44:38;25.70;99.90
18934;DHT22;9599;53.706;10.384;2023-06-10T10:47:08;25.80;99.90
18934;DHT22;9599;53.706;10.384;2023-06-10T10:49:37;25.70;99.90
18934;DHT22;9599;53.706;10.384;2023-06-10T10:52:11;25.60;99.90
18934;DHT22;9599;53.706;10.384;2023-06-10T10:54:44;25.70;99.90
18934;DHT22;9599;53.706;10.384;2023-06-10T10:57:14;25.80;99.90
18934;DHT22;9599;53.706;10.384;2023-06-10T10:59:51;26.00;99.90
18934;DHT22;9599;53.706;10.384;2023-06-10T11:02:41;25.90;99.90
18934;DHT22;9599;53.706;10.384;2023-06-10T11:05:14;26.00;99.90
18934;DHT22;9599;53.706;10.384;2023-06-10T11:07:53;26.10;99.90
18934;DHT22;9599;53.706;10.384;2023-06-10T11:10:29;26.10;99.90
18934;DHT22;9599;53.706;10.384;2023-06-10T11:12:57;26.10;99.90
18934;DHT22;9599;53.706;10.384;2023-06-10T11:15:28;26.10;99.90
18934;DHT22;9599;53.706;10.384;2023-06-10T11:18:11;25.90;99.90
18934;DHT22;9599;53.706;10.384;2023-06-10T11:20:51;26.00;99.90
18934;DHT22;9599;53.706;10.384;2023-06-10T11:23:41;26.20;99.90
18934;DHT22;9599;53.706;10.384;2023-06-10T11:26:17;26.50;99.90
18934;DHT22;9599;53.706;10.384;2023-06-10T11:29:16;26.70;99.90
18934;DHT22;9599;53.706;10.384;2023-06-10T11:31:49;26.50;99.90
18934;DHT22;9599;53.706;10.384;2023-06-10T11:34:24;26.10;99.90
18934;DHT22;9599;53.706;10.384;2023-06-10T11:36:53;26.20;99.90
18934;DHT22;9599;53.706;10.384;2023-06-10T11:39:22;26.10;99.90
18934;DHT22;9599;53.706;10.384;2023-06-10T11:41:53;26.20;99.90
18934;DHT22;9599;53.706;10.384;2023-06-10T11:44:22;26.40;99.90
18934;DHT22;9599;53.706;10.384;2023-06-10T11:46:56;26.20;99.90
18934;DHT22;9599;53.706;10.384;2023-06-10T11:49:24;26.20;99.90
18934;DHT22;9599;53.706;10.384;2023-06-10T11:51:52;26.30;99.90
18934;DHT22;9599;53.706;10.384;2023-06-10T11:54:20;26.50;99.90
18934;DHT22;9599;53.706;10.384;2023-06-10T11:56:48;26.60;99.90
18934;DHT22;9599;53.706;10.384;2023-06-10T11:59:17;26.60;99.90
18934;DHT22;9599;53.706;10.384;2023-06-10T12:01:45;26.50;99.90
18934;DHT22;9599;53.706;10.384;2023-06-10T12:04:16;26.60;99.90
18934;DHT22;9599;53.706;10.384;2023-06-10T12:06:47;26.40;99.90
18934;DHT22;9599;53.706;10.384;2023-06-10T12:09:19;26.60;99.90
18934;DHT22;9599;53.706;10.384;2023-06-10T12:11:55;26.70;99.90
18934;DHT22;9599;53.706;10.384;2023-06-10T12:14:53;26.40;99.90
18934;DHT22;9599;53.706;10.384;2023-06-10T12:17:23;26.10;99.90
18934;DHT22;9599;53.706;10.384;2023-06-10T12:20:06;26.20;99.90
18934;DHT22;9599;53.706;10.384;2023-06-10T12:22:39;26.40;99.90
18934;DHT22;9599;53.706;10.384;2023-06-10T12:25:08;26.40;99.90
18934;DHT22;9599;53.706;10.384;2023-06-10T12:27:39;26.30;99.90
18934;DHT22;9599;53.706;10.384;2023-06-10T12:30:08;26.30;99.90
18934;DHT22;9599;53.706;10.384;2023-06-10T12:32:41;26.20;99.90
18934;DHT22;9599;53.706;10.384;2023-06-10T12:35:12;26.10;99.90
18934;DHT22;9599;53.706;10.384;2023-06-10T12:37:41;25.90;99.90
18934;DHT22;9599;53.706;10.384;2023-06-10T12:40:10;26.00;99.90
18934;DHT22;9599;53.706;10.384;2023-06-10T12:42:39;25.80;99.90
18934;DHT22;9599;53.706;10.384;2023-06-10T12:45:08;25.70;99.90
18934;DHT22;9599;53.706;10.384;2023-06-10T12:47:37;26.00;99.90
18934;DHT22;9599;53.706;10.384;2023-06-10T12:50:07;26.00;99.90
18934;DHT22;9599;53.706;10.384;2023-06-10T12:52:37;25.90;99.90
18934;DHT22;9599;53.706;10.384;2023-06-10T12:55:05;26.20;99.90
18934;DHT22;9599;53.706;10.384;2023-06-10T12:57:34;26.10;99.90
18934;DHT22;9599;53.706;10.384;2023-06-10T13:00:02;26.40;99.90
18934;DHT22;9599;53.706;10.384;2023-06-10T13:02:35;26.30;99.90
18934;DHT22;9599;53.706;10.384;2023-06-10T13:05:03;26.20;99.90
18934;DHT22;9599;53.706;10.384;2023-06-10T13:07:31;26.00;99.90
18934;DHT22;9599;53.706;10.384;2023-06-10T13:10:00;25.80;99.90
18934;DHT22;9599;53.706;10.384;2023-06-10T13:12:29;25.80;99.90
18934;DHT22;9599;53.706;10.384;2023-06-10T13:15:12;25.60;99.90
18934;DHT22;9599;53.706;10.384;2023-06-10T13:17:42;25.40;99.90
18934;DHT22;9599;53.706;10.384;2023-06-10T13:20:10;25.40;99.90
18934;DHT22;9599;53.706;10.384;2023-06-10T13:22:38;25.20;99.90
18934;DHT22;9599;53.706;10.384;2023-06-10T13:25:08;25.10;99.90
18934;DHT22;9599;53.706;10.384;2023-06-10T13:27:37;25.20;99.90
18934;DHT22;9599;53.706;10.384;2023-06-10T13:30:07;25.30;99.90
18934;DHT22;9599;53.706;10.384;2023-06-10T13:32:35;25.20;99.90
18934;DHT22;9599;53.706;10.384;2023-06-10T13:35:04;25.20;99.90
18934;DHT22;9599;53.706;10.384;2023-06-10T13:37:33;25.50;99.90
18934;DHT22;9599;53.706;10.384;2023-06-10T13:40:01;25.50;99.90
18934;DHT22;9599;53.706;10.384;2023-06-10T13:42:31;25.60;99.90
18934;DHT22;9599;53.706;10.384;2023-06-10T13:44:59;25.30;99.90
18934;DHT22;9599;53.706;10.384;2023-06-10T13:47:27;25.40;99.90
18934;DHT22;9599;53.706;10.384;2023-06-10T13:49:55;25.30;99.90
18934;DHT22;9599;53.706;10.384;2023-06-10T13:52:23;25.20;99.90
18934;DHT22;9599;53.706;10.384;2023-06-10T13:54:50;25.20;99.90
18934;DHT22;9599;53.706;10.384;2023-06-10T13:57:18;25.20;99.90
18934;DHT22;9599;53.706;10.384;2023-06-10T13:59:47;25.20;99.90
18934;DHT22;9599;53.706;10.384;2023-06-10T14:02:16;25.20;99.90
18934;DHT22;9599;53.706;10.384;2023-06-10T14:04:44;25.10;99.90
18934;DHT22;9599;53.706;10.384;2023-06-10T14:07:12;25.30;99.90
18934;DHT22;9599;53.706;10.384;2023-06-10T14:09:39;25.20;99.90
18934;DHT22;9599;53.706;10.384;2023-06-10T14:12:08;25.40;99.90
18934;DHT22;9599;53.706;10.384;2023-06-10T14:14:37;25.40;99.90
18934;DHT22;9599;53.706;10.384;2023-06-10T14:17:06;25.10;99.90
18934;DHT22;9599;53.706;10.384;2023-06-10T14:19:35;25.00;99.90
18934;DHT22;9599;53.706;10.384;2023-06-10T14:22:04;24.90;99.90
18934;DHT22;9599;53.706;10.384;2023-06-10T14:24:34;25.10;99.90
18934;DHT22;9599;53.706;10.384;2023-06-10T14:27:03;25.00;99.90
18934;DHT22;9599;53.706;10.384;2023-06-10T14:29:31;25.00;99.90
18934;DHT22;9599;53.706;10.384;2023-06-10T14:32:00;25.10;99.90
18934;DHT22;9599;53.706;10.384;2023-06-10T14:34:32;25.00;99.90
18934;DHT22;9599;53.706;10.384;2023-06-10T14:37:00;25.20;99.90
18934;DHT22;9599;53.706;10.384;2023-06-10T14:39:30;25.20;99.90
18934;DHT22;9599;53.706;10.384;2023-06-10T14:41:58;25.20;99.90
18934;DHT22;9599;53.706;10.384;2023-06-10T14:44:26;25.20;99.90
18934;DHT22;9599;53.706;10.384;2023-06-10T14:46:54;25.00;99.90
18934;DHT22;9599;53.706;10.384;2023-06-10T14:49:22;24.90;99.90
18934;DHT22;9599;53.706;10.384;2023-06-10T14:51:51;25.00;99.90
18934;DHT22;9599;53.706;10.384;2023-06-10T14:54:19;25.00;99.90
18934;DHT22;9599;53.706;10.384;2023-06-10T14:56:48;24.90;99.90
18934;DHT22;9599;53.706;10.384;2023-06-10T14:59:16;24.80;99.90
18934;DHT22;9599;53.706;10.384;2023-06-10T15:01:44;24.60;99.90
18934;DHT22;9599;53.706;10.384;2023-06-10T15:04:12;24.60;99.90
18934;DHT22;9599;53.706;10.384;2023-06-10T15:06:40;24.40;99.90
18934;DHT22;9599;53.706;10.384;2023-06-10T15:09:10;24.40;99.90
18934;DHT22;9599;53.706;10.384;2023-06-10T15:11:38;24.50;99.90
18934;DHT22;9599;53.706;10.384;2023-06-10T15:14:06;24.40;99.90
18934;DHT22;9599;53.706;10.384;2023-06-10T15:16:34;24.50;99.90
18934;DHT22;9599;53.706;10.384;2023-06-10T15:19:02;24.50;99.90
18934;DHT22;9599;53.706;10.384;2023-06-10T15:21:33;24.30;99.90
18934;DHT22;9599;53.706;10.384;2023-06-10T15:24:01;24.30;99.90
18934;DHT22;9599;53.706;10.384;2023-06-10T15:26:31;24.40;99.90
18934;DHT22;9599;53.706;10.384;2023-06-10T15:28:58;24.50;99.90
18934;DHT22;9599;53.706;10.384;2023-06-10T15:31:30;24.50;99.90
18934;DHT22;9599;53.706;10.384;2023-06-10T15:33:59;24.40;99.90
18934;DHT22;9599;53.706;10.384;2023-06-10T15:36:27;24.20;99.90
18934;DHT22;9599;53.706;10.384;2023-06-10T15:39:00;24.10;99.90
18934;DHT22;9599;53.706;10.384;2023-06-10T15:41:28;24.40;99.90
18934;DHT22;9599;53.706;10.384;2023-06-10T15:43:58;24.20;99.90
18934;DHT22;9599;53.706;10.384;2023-06-10T15:46:27;24.20;99.90